createdAt,value
2023-04-15T00:01:48.051Z,13.23
2023-04-15T00:04:14.749Z,13.65
2023-04-15T00:06:41.698Z,13.82
2023-04-15T00:09:08.142Z,11.63
2023-04-15T00:11:34.798Z,14.95
2023-04-15T00:14:01.284Z,11.88
2023-04-15T00:16:28.436Z,15.65
2023-04-15T00:18:55.075Z,13.40
2023-04-15T00:21:21.820Z,14.15
2023-04-15T00:23:52.577Z,15.07
2023-04-15T00:26:19.767Z,13.27
2023-04-15T00:28:48.937Z,11.70
2023-04-15T00:31:15.686Z,11.82
2023-04-15T00:33:42.260Z,10.77
2023-04-15T00:36:08.845Z,11.60
2023-04-15T00:38:39.131Z,10.38
2023-04-15T00:41:05.743Z,9.20
2023-04-15T00:43:32.306Z,9.60
2023-04-15T00:45:59.963Z,8.05
2023-04-15T00:48:27.943Z,9.55
2023-04-15T00:50:54.420Z,8.10
2023-04-15T00:53:20.892Z,8.80
2023-04-15T00:55:47.510Z,7.32
2023-04-15T00:58:14.758Z,8.02
2023-04-15T01:00:42.934Z,8.85
2023-04-15T01:03:10.035Z,7.88
2023-04-15T01:05:36.934Z,8.15
2023-04-15T01:08:03.742Z,9.23
2023-04-15T01:10:31.898Z,7.22
2023-04-15T01:12:58.476Z,7.45
2023-04-15T01:15:25.805Z,8.82
2023-04-15T01:17:52.713Z,8.27
2023-04-15T01:20:20.597Z,7.40
2023-04-15T01:22:47.101Z,9.05
2023-04-15T01:25:18.606Z,8.02
2023-04-15T01:27:45.555Z,8.00
2023-04-15T01:30:12.509Z,7.68
2023-04-15T01:32:39.145Z,8.38
2023-04-15T01:35:06.205Z,8.07
2023-04-15T01:37:33.604Z,9.57
2023-04-15T01:40:00.206Z,8.27
2023-04-15T01:42:27.602Z,10.02
2023-04-15T01:44:54.458Z,7.78
2023-04-15T01:47:21.576Z,7.97
2023-04-15T01:49:48.452Z,8.73
2023-04-15T01:52:15.690Z,9.35
2023-04-15T01:54:42.526Z,7.57
2023-04-15T01:57:09.370Z,8.77
2023-04-15T01:59:36.252Z,9.68
2023-04-15T02:02:02.905Z,9.07
2023-04-15T02:04:29.442Z,8.75
2023-04-15T02:06:59.821Z,8.55
2023-04-15T02:09:26.337Z,8.80
2023-04-15T02:11:54.234Z,8.88
2023-04-15T02:14:20.970Z,7.95
2023-04-15T02:16:47.583Z,8.07
2023-04-15T02:19:15.864Z,8.50
2023-04-15T02:21:42.400Z,8.18
2023-04-15T02:24:09.097Z,7.63
2023-04-15T02:26:35.575Z,9.63
2023-04-15T02:29:02.464Z,8.88
2023-04-15T02:31:29.164Z,9.48
2023-04-15T02:33:55.758Z,9.50
2023-04-15T02:36:23.833Z,11.82
2023-04-15T02:38:50.669Z,9.93
2023-04-15T02:41:17.864Z,9.57
2023-04-15T02:43:45.693Z,9.38
2023-04-15T02:46:14.881Z,8.60
2023-04-15T02:48:41.825Z,9.98
2023-04-15T02:51:17.386Z,9.45
2023-04-15T02:53:44.066Z,9.63
2023-04-15T02:56:11.664Z,9.75
2023-04-15T02:58:39.373Z,11.15
2023-04-15T03:01:05.934Z,9.88
2023-04-15T03:03:32.724Z,9.85
2023-04-15T03:05:59.349Z,11.50
2023-04-15T03:08:26.528Z,11.13
2023-04-15T03:10:53.686Z,12.73
2023-04-15T03:13:20.856Z,11.25
2023-04-15T03:15:48.597Z,10.95
2023-04-15T03:18:15.561Z,12.68
2023-04-15T03:20:42.174Z,11.20
2023-04-15T03:23:08.873Z,11.85
2023-04-15T03:25:37.429Z,12.15
2023-04-15T03:28:06.094Z,12.70
2023-04-15T03:30:33.224Z,12.55
2023-04-15T03:32:59.822Z,13.75
2023-04-15T03:35:26.450Z,11.35
2023-04-15T03:37:53.009Z,14.70
2023-04-15T03:40:21.510Z,15.32
2023-04-15T03:42:48.133Z,15.88
2023-04-15T03:45:14.916Z,15.82
2023-04-15T03:47:41.578Z,16.00
2023-04-15T03:50:09.103Z,16.42
2023-04-15T03:52:35.733Z,16.88
2023-04-15T03:55:02.348Z,15.55
2023-04-15T03:57:28.852Z,17.15
2023-04-15T03:59:55.481Z,17.52
2023-04-15T04:02:23.185Z,19.63
2023-04-15T04:04:50.405Z,19.38
2023-04-15T04:07:18.312Z,17.10
2023-04-15T04:09:47.010Z,18.70
2023-04-15T04:12:14.005Z,19.13
2023-04-15T04:14:40.783Z,17.98
2023-04-15T04:17:07.407Z,17.38
2023-04-15T04:19:34.151Z,17.60
2023-04-15T04:22:01.311Z,18.35
2023-04-15T04:24:27.940Z,18.50
2023-04-15T04:26:54.458Z,19.42
2023-04-15T04:29:21.378Z,18.55
2023-04-15T04:31:48.938Z,20.27
2023-04-15T04:34:16.250Z,19.00
2023-04-15T04:36:42.762Z,18.40
2023-04-15T04:39:09.279Z,20.33
2023-04-15T04:41:35.979Z,19.80
2023-04-15T04:44:02.706Z,20.08
2023-04-15T04:46:29.293Z,19.58
2023-04-15T04:48:55.867Z,21.58
2023-04-15T04:51:22.499Z,20.73
2023-04-15T04:53:49.033Z,19.73
2023-04-15T04:56:16.030Z,18.50
2023-04-15T04:58:42.614Z,20.88
2023-04-15T05:01:09.165Z,19.48
2023-04-15T05:03:36.059Z,19.80
2023-04-15T05:06:06.128Z,20.00
2023-04-15T05:08:33.057Z,19.65
2023-04-15T05:10:59.489Z,20.65
2023-04-15T05:13:26.177Z,18.73
2023-04-15T05:15:52.747Z,18.95
2023-04-15T05:18:19.375Z,19.05
2023-04-15T05:20:46.256Z,19.85
2023-04-15T05:23:12.810Z,20.33
2023-04-15T05:25:39.382Z,17.80
2023-04-15T05:28:06.484Z,20.15
2023-04-15T05:30:33.029Z,23.45
2023-04-15T05:32:59.656Z,22.73
2023-04-15T05:35:26.170Z,22.60
2023-04-15T05:37:52.656Z,25.55
2023-04-15T05:40:20.075Z,21.73
2023-04-15T05:42:46.688Z,22.45
2023-04-15T05:45:13.600Z,20.80
2023-04-15T05:47:40.241Z,21.05
2023-04-15T05:50:08.283Z,21.50
2023-04-15T05:52:34.793Z,23.10
2023-04-15T05:55:01.472Z,23.33
2023-04-15T05:57:28.436Z,24.02
2023-04-15T05:59:57.221Z,26.20
2023-04-15T06:02:23.731Z,23.67
2023-04-15T06:04:50.379Z,23.85
2023-04-15T06:07:16.961Z,24.95
2023-04-15T06:09:43.463Z,27.00
2023-04-15T06:12:12.326Z,26.20
2023-04-15T06:14:40.470Z,25.27
2023-04-15T06:17:07.615Z,29.20
2023-04-15T06:19:34.587Z,26.75
2023-04-15T06:22:01.812Z,27.13
2023-04-15T06:24:28.742Z,27.45
2023-04-15T06:26:55.922Z,27.45
2023-04-15T06:29:22.428Z,27.92
2023-04-15T06:31:49.644Z,30.70
2023-04-15T06:34:16.358Z,30.30
2023-04-15T06:36:42.985Z,34.25
2023-04-15T06:39:09.490Z,31.73
2023-04-15T06:41:36.556Z,31.85
2023-04-15T06:44:03.289Z,33.63
2023-04-15T06:46:29.858Z,29.80
2023-04-15T06:48:56.335Z,34.08
2023-04-15T06:51:25.575Z,33.00
2023-04-15T06:53:53.368Z,34.22
2023-04-15T06:56:19.862Z,34.67
2023-04-15T06:58:46.356Z,35.47
2023-04-15T07:01:14.410Z,35.50
2023-04-15T07:03:41.940Z,36.65
2023-04-15T07:06:09.531Z,39.90
2023-04-15T07:08:36.307Z,36.00
2023-04-15T07:11:02.798Z,38.50
2023-04-15T07:13:31.915Z,37.33
2023-04-15T07:15:58.817Z,41.65
2023-04-15T07:18:25.541Z,39.95
2023-04-15T07:20:52.181Z,39.55
2023-04-15T07:23:18.824Z,42.10
2023-04-15T07:25:45.357Z,46.25
2023-04-15T07:28:11.957Z,42.30
2023-04-15T07:30:38.959Z,47.00
2023-04-15T07:33:05.650Z,45.78
2023-04-15T07:35:32.110Z,44.78
2023-04-15T07:37:58.723Z,44.92
2023-04-15T07:40:25.212Z,43.42
2023-04-15T07:42:52.465Z,46.00
2023-04-15T07:45:18.967Z,45.63
2023-04-15T07:47:45.990Z,46.90
2023-04-15T07:50:12.795Z,43.70
2023-04-15T07:52:39.436Z,44.72
2023-04-15T07:55:08.415Z,47.47
2023-04-15T07:57:36.160Z,46.22
2023-04-15T08:00:05.798Z,51.55
2023-04-15T08:02:40.655Z,48.03
2023-04-15T08:05:07.801Z,52.88
2023-04-15T08:07:34.399Z,48.72
2023-04-15T08:10:01.083Z,50.72
2023-04-15T08:12:27.572Z,51.00
2023-04-15T08:14:55.436Z,52.65
2023-04-15T08:17:22.010Z,51.53
2023-04-15T08:19:48.567Z,50.70
2023-04-15T08:22:17.660Z,49.05
2023-04-15T08:24:45.633Z,50.63
2023-04-15T08:27:12.215Z,52.80
2023-04-15T08:29:39.068Z,49.97
2023-04-15T08:32:06.364Z,51.95
2023-04-15T08:34:32.971Z,49.63
2023-04-15T08:36:59.397Z,49.03
2023-04-15T08:39:26.322Z,48.95
2023-04-15T08:42:01.933Z,54.35
2023-04-15T08:44:34.869Z,48.40
2023-04-15T08:47:03.052Z,53.85
2023-04-15T08:49:30.465Z,51.80
2023-04-15T08:51:59.683Z,57.92
2023-04-15T08:54:28.075Z,52.20
2023-04-15T08:56:54.814Z,52.97
2023-04-15T08:59:22.197Z,54.97
2023-04-15T09:01:50.939Z,58.75
2023-04-15T09:04:17.556Z,54.00
2023-04-15T09:06:44.312Z,55.97
2023-04-15T09:09:14.177Z,57.47
2023-04-15T09:11:40.904Z,53.08
2023-04-15T09:14:07.552Z,50.92
2023-04-15T09:17:04.281Z,56.47
2023-04-15T09:19:33.393Z,60.45
2023-04-15T09:22:00.071Z,55.05
2023-04-15T09:24:37.296Z,52.33
2023-04-15T09:27:04.175Z,60.25
2023-04-15T09:29:30.598Z,53.17
2023-04-15T09:31:57.088Z,53.20
2023-04-15T09:34:35.678Z,59.55
2023-04-15T09:37:02.116Z,57.58
2023-04-15T09:39:44.725Z,56.10
2023-04-15T09:42:11.501Z,51.35
2023-04-15T09:44:37.949Z,53.75
2023-04-15T09:47:04.522Z,56.78
2023-04-15T09:49:31.038Z,57.42
2023-04-15T09:52:05.992Z,57.75
2023-04-15T09:54:37.830Z,52.67
2023-04-15T09:57:09.845Z,53.05
2023-04-15T09:59:36.610Z,51.50
2023-04-15T10:02:07.462Z,54.65
2023-04-15T10:04:39.786Z,53.63
2023-04-15T10:07:07.307Z,54.38
2023-04-15T10:09:35.930Z,53.75
2023-04-15T10:12:05.603Z,52.88
2023-04-15T10:14:34.563Z,48.85
2023-04-15T10:17:05.598Z,53.10
2023-04-15T10:19:33.826Z,57.60
2023-04-15T10:22:00.505Z,51.83
2023-04-15T10:24:27.995Z,57.90
2023-04-15T10:26:55.429Z,49.60
2023-04-15T10:29:23.297Z,50.95
2023-04-15T10:31:50.151Z,53.95
2023-04-15T10:34:17.450Z,49.05
2023-04-15T10:36:43.861Z,50.63
2023-04-15T10:39:33.885Z,49.88
2023-04-15T10:42:07.788Z,50.72
2023-04-15T10:44:36.664Z,45.28
2023-04-15T10:47:19.428Z,51.38
2023-04-15T10:49:52.340Z,44.92
2023-04-15T10:52:27.448Z,48.53
2023-04-15T10:55:19.155Z,50.03
2023-04-15T10:57:45.956Z,47.60
2023-04-15T11:00:14.822Z,43.75
2023-04-15T11:02:52.181Z,41.60
2023-04-15T11:05:20.672Z,44.80
2023-04-15T11:07:48.404Z,44.50
2023-04-15T11:10:17.527Z,45.70
2023-04-15T11:12:58.002Z,41.53
2023-04-15T11:15:35.820Z,47.90
2023-04-15T11:18:10.466Z,45.15
2023-04-15T11:20:38.658Z,43.40
2023-04-15T11:23:12.146Z,44.90
2023-04-15T11:25:41.726Z,39.08
2023-04-15T11:28:08.312Z,38.08
2023-04-15T11:30:37.312Z,40.47
2023-04-15T11:33:09.497Z,40.80
2023-04-15T11:35:36.328Z,36.72
2023-04-15T11:38:04.003Z,41.47
2023-04-15T11:40:31.582Z,37.58
2023-04-15T11:43:15.886Z,37.30
2023-04-15T11:45:59.941Z,38.35
2023-04-15T11:48:36.576Z,35.70
2023-04-15T11:51:07.835Z,34.85
2023-04-15T11:53:42.542Z,37.22
2023-04-15T11:56:18.658Z,35.22
2023-04-15T11:58:46.389Z,36.58
2023-04-15T12:01:13.640Z,37.85
2023-04-15T12:03:49.425Z,38.40
2023-04-15T12:06:21.386Z,34.80
2023-04-15T12:09:10.052Z,37.63
2023-04-15T12:11:39.599Z,34.20
2023-04-15T12:14:16.644Z,37.40
2023-04-15T12:16:49.301Z,36.20
2023-04-15T12:19:22.638Z,36.70
2023-04-15T12:21:50.473Z,33.15
2023-04-15T12:24:21.852Z,35.83
2023-04-15T12:26:53.656Z,33.90
2023-04-15T12:29:25.025Z,35.90
2023-04-15T12:31:53.682Z,37.33
2023-04-15T12:34:34.696Z,37.08
2023-04-15T12:37:03.561Z,39.40
2023-04-15T12:39:36.412Z,36.28
2023-04-15T12:42:04.376Z,37.00
2023-04-15T12:44:31.601Z,32.88
2023-04-15T12:46:58.252Z,36.80
2023-04-15T12:49:25.624Z,34.25
2023-04-15T12:51:54.710Z,33.33
2023-04-15T12:54:22.037Z,31.85
2023-04-15T12:56:50.261Z,29.08
2023-04-15T12:59:20.174Z,34.25
2023-04-15T13:01:48.542Z,29.23
2023-04-15T13:04:15.610Z,29.90
2023-04-15T13:06:42.972Z,32.47
2023-04-15T13:09:09.578Z,31.27
2023-04-15T13:11:36.561Z,28.48
2023-04-15T13:14:05.152Z,30.63
2023-04-15T13:16:33.227Z,27.77
2023-04-15T13:19:00.336Z,29.27
2023-04-15T13:21:27.333Z,27.10
2023-04-15T13:23:54.305Z,29.45
2023-04-15T13:26:21.248Z,24.83
2023-04-15T13:28:47.973Z,27.30
2023-04-15T13:31:14.579Z,26.23
2023-04-15T13:33:41.266Z,30.75
2023-04-15T13:36:08.348Z,23.02
2023-04-15T13:38:34.837Z,25.95
2023-04-15T13:41:01.573Z,24.73
2023-04-15T13:43:28.314Z,28.20
2023-04-15T13:45:55.313Z,24.17
2023-04-15T13:48:22.088Z,25.52
2023-04-15T13:50:48.579Z,25.73
2023-04-15T13:53:15.124Z,24.85
2023-04-15T13:55:42.802Z,22.67
2023-04-15T13:58:10.242Z,24.23
2023-04-15T14:00:36.962Z,22.88
2023-04-15T14:03:03.893Z,26.85
2023-04-15T14:05:30.747Z,24.42
2023-04-15T14:07:57.597Z,25.83
2023-04-15T14:10:24.274Z,26.90
2023-04-15T14:12:50.982Z,26.23
2023-04-15T14:15:17.496Z,23.63
2023-04-15T14:17:44.141Z,25.30
2023-04-15T14:20:10.914Z,25.00
2023-04-15T14:22:37.573Z,22.08
2023-04-15T14:25:04.839Z,23.13
2023-04-15T14:27:31.392Z,22.83
2023-04-15T14:29:58.752Z,22.92
2023-04-15T14:32:26.296Z,22.85
2023-04-15T14:34:52.855Z,24.98
2023-04-15T14:37:19.484Z,23.02
2023-04-15T14:39:46.296Z,22.38
2023-04-15T14:42:12.789Z,20.80
2023-04-15T14:44:39.270Z,19.45
2023-04-15T14:47:06.104Z,19.50
2023-04-15T14:49:32.689Z,20.73
2023-04-15T14:51:59.246Z,19.15
2023-04-15T14:54:25.737Z,22.65
2023-04-15T14:56:52.271Z,19.73
2023-04-15T14:59:18.766Z,21.02
2023-04-15T15:01:45.565Z,22.83
2023-04-15T15:04:13.078Z,21.35
2023-04-15T15:06:40.638Z,20.23
2023-04-15T15:09:07.602Z,20.88
2023-04-15T15:11:34.219Z,19.80
2023-04-15T15:14:00.951Z,19.45
2023-04-15T15:16:28.255Z,20.65
2023-04-15T15:18:55.409Z,17.65
2023-04-15T15:21:22.008Z,18.67
2023-04-15T15:23:48.517Z,18.13
2023-04-15T15:26:15.750Z,21.67
2023-04-15T15:28:42.418Z,19.77
2023-04-15T15:31:09.002Z,19.08
2023-04-15T15:33:36.071Z,20.52
2023-04-15T15:36:03.776Z,21.20
2023-04-15T15:38:30.331Z,18.48
2023-04-15T15:40:56.787Z,19.58
2023-04-15T15:43:23.340Z,17.75
2023-04-15T15:45:52.196Z,19.92
2023-04-15T15:48:18.829Z,21.70
2023-04-15T15:50:45.779Z,22.90
2023-04-15T15:53:17.831Z,21.10
2023-04-15T15:55:44.287Z,19.83
2023-04-15T15:58:10.971Z,19.23
2023-04-15T16:00:37.446Z,23.25
2023-04-15T16:03:07.258Z,25.73
2023-04-15T16:05:34.526Z,23.63
2023-04-15T16:08:01.112Z,25.50
2023-04-15T16:10:28.021Z,22.77
2023-04-15T16:12:54.937Z,23.23
2023-04-15T16:15:22.866Z,26.05
2023-04-15T16:17:49.581Z,26.30
2023-04-15T16:20:16.626Z,26.23
2023-04-15T16:22:43.128Z,26.08
2023-04-15T16:25:09.983Z,24.77
2023-04-15T16:27:50.281Z,24.40
2023-04-15T16:30:23.252Z,23.50
2023-04-15T16:32:49.790Z,24.80
2023-04-15T16:35:17.108Z,24.73
2023-04-15T16:37:43.698Z,26.77
2023-04-15T16:40:10.675Z,24.17
2023-04-15T16:42:37.203Z,24.73
2023-04-15T16:45:03.942Z,23.98
2023-04-15T16:47:30.505Z,29.65
2023-04-15T16:49:57.000Z,27.77
2023-04-15T16:52:23.497Z,27.92
2023-04-15T16:54:49.977Z,23.98
2023-04-15T16:57:16.545Z,24.52
2023-04-15T16:59:43.035Z,27.95
2023-04-15T17:02:12.464Z,24.50
2023-04-15T17:04:39.710Z,23.80
2023-04-15T17:07:06.800Z,26.50
2023-04-15T17:09:33.525Z,25.95
2023-04-15T17:12:01.033Z,24.52
2023-04-15T17:14:28.852Z,26.15
2023-04-15T17:16:55.875Z,28.17
2023-04-15T17:19:22.493Z,24.98
2023-04-15T17:21:50.582Z,25.92
2023-04-15T17:24:17.227Z,27.45
2023-04-15T17:26:43.848Z,25.80
2023-04-15T17:29:10.402Z,26.25
2023-04-15T17:31:37.108Z,25.10
2023-04-15T17:34:07.804Z,28.42
2023-04-15T17:36:37.373Z,26.27
2023-04-15T17:39:04.660Z,28.73
2023-04-15T17:41:31.372Z,29.20
2023-04-15T17:43:57.872Z,28.92
2023-04-15T17:46:24.639Z,33.22
2023-04-15T17:48:51.168Z,30.05
2023-04-15T17:51:17.810Z,31.30
2023-04-15T17:53:44.288Z,30.05
2023-04-15T17:56:11.023Z,28.90
2023-04-15T17:58:39.373Z,30.95
2023-04-15T18:01:06.605Z,31.55
2023-04-15T18:03:33.280Z,30.83
2023-04-15T18:06:01.308Z,31.73
2023-04-15T18:08:28.833Z,31.50
2023-04-15T18:10:55.266Z,33.55
2023-04-15T18:13:21.720Z,31.73
2023-04-15T18:15:51.627Z,37.03
2023-04-15T18:18:18.332Z,33.72
2023-04-15T18:20:44.778Z,33.97
2023-04-15T18:23:11.423Z,29.88
2023-04-15T18:25:38.341Z,32.55
2023-04-15T18:28:05.593Z,32.08
2023-04-15T18:30:32.125Z,32.17
2023-04-15T18:32:58.779Z,28.83
2023-04-15T18:35:25.276Z,32.13
2023-04-15T18:37:52.838Z,32.55
2023-04-15T18:40:19.436Z,29.63
2023-04-15T18:42:45.942Z,33.33
2023-04-15T18:45:12.486Z,35.15
2023-04-15T18:47:39.167Z,29.63
2023-04-15T18:50:06.747Z,32.95
2023-04-15T18:52:34.131Z,31.27
2023-04-15T18:55:02.994Z,31.45
2023-04-15T18:57:34.784Z,30.50
2023-04-15T19:00:01.993Z,32.78
2023-04-15T19:02:28.634Z,33.25
2023-04-15T19:04:55.204Z,32.65
2023-04-15T19:07:22.126Z,32.55
2023-04-15T19:09:48.892Z,31.17
2023-04-15T19:12:15.320Z,31.63
2023-04-15T19:14:41.756Z,31.63
2023-04-15T19:17:08.231Z,33.05
2023-04-15T19:19:34.740Z,30.55
2023-04-15T19:22:01.681Z,32.35
2023-04-15T19:24:28.265Z,33.10
2023-04-15T19:26:54.717Z,32.42
2023-04-15T19:29:21.871Z,32.83
2023-04-15T19:31:48.366Z,38.28
2023-04-15T19:34:14.829Z,33.33
2023-04-15T19:36:41.357Z,34.20
2023-04-15T19:39:08.418Z,36.80
2023-04-15T19:41:35.022Z,33.20
2023-04-15T19:44:02.959Z,30.50
2023-04-15T19:46:29.560Z,34.08
2023-04-15T19:48:56.161Z,34.25
2023-04-15T19:51:22.710Z,33.72
2023-04-15T19:53:53.871Z,30.58
2023-04-15T19:56:20.670Z,35.60
2023-04-15T19:58:52.774Z,34.30
2023-04-15T20:01:20.341Z,34.85
2023-04-15T20:03:47.466Z,34.08
2023-04-15T20:06:15.639Z,34.50
2023-04-15T20:08:42.150Z,33.10
2023-04-15T20:11:09.854Z,35.63
2023-04-15T20:13:36.811Z,36.20
2023-04-15T20:16:03.455Z,32.92
2023-04-15T20:18:29.971Z,36.20
2023-04-15T20:20:56.402Z,33.33
2023-04-15T20:23:22.813Z,33.88
2023-04-15T20:25:49.217Z,41.50
2023-04-15T20:28:17.875Z,34.00
2023-04-15T20:30:44.440Z,35.97
2023-04-15T20:33:11.566Z,34.85
2023-04-15T20:35:38.846Z,35.67
2023-04-15T20:38:05.738Z,36.97
2023-04-15T20:40:33.712Z,33.50
2023-04-15T20:43:00.540Z,36.97
2023-04-15T20:45:26.960Z,38.22
2023-04-15T20:47:55.090Z,38.72
2023-04-15T20:50:21.614Z,38.92
2023-04-15T20:52:48.020Z,35.45
2023-04-15T20:55:14.493Z,34.72
2023-04-15T20:57:41.115Z,35.05
2023-04-15T21:00:09.811Z,33.83
2023-04-15T21:02:36.943Z,38.15
2023-04-15T21:05:03.624Z,33.70
2023-04-15T21:07:30.069Z,35.97
2023-04-15T21:09:56.618Z,37.78
2023-04-15T21:12:23.166Z,36.25
2023-04-15T21:14:49.861Z,34.70
2023-04-15T21:17:16.407Z,40.55
2023-04-15T21:19:43.009Z,34.85
2023-04-15T21:22:09.791Z,33.13
2023-04-15T21:24:36.198Z,37.35
2023-04-15T21:27:02.818Z,38.03
2023-04-15T21:29:29.279Z,35.33
2023-04-15T21:31:55.733Z,38.22
2023-04-15T21:34:22.185Z,40.55
2023-04-15T21:36:48.606Z,33.30
2023-04-15T21:39:15.228Z,35.33
2023-04-15T21:41:41.724Z,34.38
2023-04-15T21:44:08.215Z,35.75
2023-04-15T21:46:35.922Z,34.80
2023-04-15T21:49:03.471Z,31.65
2023-04-15T21:51:30.063Z,32.15
2023-04-15T21:53:56.878Z,33.15
2023-04-15T21:56:24.553Z,33.83
2023-04-15T21:58:54.036Z,35.97
2023-04-15T22:01:21.080Z,41.25
2023-04-15T22:03:47.857Z,39.22
2023-04-15T22:06:14.447Z,39.90
2023-04-15T22:08:55.151Z,39.38
2023-04-15T22:11:30.181Z,45.25
2023-04-15T22:13:57.674Z,39.03
2023-04-15T22:16:27.497Z,41.17
2023-04-15T22:18:55.186Z,40.00
2023-04-15T22:21:22.016Z,39.25
2023-04-15T22:23:49.219Z,42.90
2023-04-15T22:26:15.786Z,43.17
2023-04-15T22:28:42.206Z,39.30
2023-04-15T22:31:08.782Z,40.67
2023-04-15T22:33:35.419Z,44.60
2023-04-15T22:36:01.971Z,42.78
2023-04-15T22:38:28.423Z,41.33
2023-04-15T22:40:54.968Z,39.50
2023-04-15T22:43:21.524Z,41.03
2023-04-15T22:45:50.517Z,45.40
2023-04-15T22:48:18.133Z,37.17
2023-04-15T22:50:44.678Z,45.80
2023-04-15T22:53:11.237Z,42.47
2023-04-15T22:55:37.643Z,44.03
2023-04-15T22:58:04.184Z,39.60
2023-04-15T23:00:30.612Z,42.78
2023-04-15T23:02:57.156Z,41.75
2023-04-15T23:05:23.790Z,40.65
2023-04-15T23:07:50.816Z,36.90
2023-04-15T23:10:17.236Z,41.33
2023-04-15T23:12:43.685Z,36.83
2023-04-15T23:15:10.530Z,39.58
2023-04-15T23:17:37.020Z,38.72
2023-04-15T23:20:03.601Z,36.88
2023-04-15T23:22:30.581Z,40.03
2023-04-15T23:24:56.998Z,39.08
2023-04-15T23:27:23.453Z,37.28
2023-04-15T23:29:49.895Z,41.95
2023-04-15T23:32:16.320Z,39.45
2023-04-15T23:34:42.798Z,38.55
2023-04-15T23:37:09.217Z,38.90
2023-04-15T23:39:35.614Z,36.95
2023-04-15T23:42:02.176Z,35.03
2023-04-15T23:44:28.595Z,37.60
2023-04-15T23:46:55.052Z,37.95
2023-04-15T23:49:21.558Z,36.92
2023-04-15T23:51:48.040Z,37.50
2023-04-15T23:54:14.910Z,37.38
2023-04-15T23:56:41.356Z,40.25
2023-04-15T23:59:08.061Z,38.28
